Time;durP1;ratioP1;P1;durP2;ratioP2;P2;SDS_P1;SDS_P2;PMS_P1;PMS_P2;Temp;Humidity;BMP_temperature;BMP_pressure;BME280_temperature;BME280_humidity;BME280_pressure;Samples;Min_cycle;Max_cycle;Signal;HPM_P1;HPM_P2
2023/10/25 00:01:05;;;;;;;9.67;3.80;;;;;9.00;99631.00;;;;10542487;27;20221;-71
2023/10/25 00:06:07;;;;;;;13.43;4.17;;;;;9.00;99621.00;;;;10530892;28;20230;-73
2023/10/25 00:11:10;;;;;;;5.13;3.93;;;;;9.10;99611.00;;;;10547965;27;20296;-72
2023/10/25 00:16:13;;;;;;;9.37;3.70;;;;;9.10;99608.00;;;;10539552;28;20678;-71
2023/10/25 00:21:15;;;;;;;6.97;3.40;;;;;9.10;99602.00;;;;10541735;28;20207;-72
2023/10/25 00:26:17;;;;;;;6.83;3.53;;;;;9.20;99607.00;;;;10533013;28;20204;-72
2023/10/25 00:31:25;;;;;;;12.57;4.17;;;;;9.30;99590.00;;;;10523261;27;20192;-71
2023/10/25 00:36:27;;;;;;;11.27;3.93;;;;;9.30;99589.00;;;;10534899;28;20266;-71
2023/10/25 00:41:29;;;;;;;15.30;4.17;;;;;9.30;99584.00;;;;10531055;28;20651;-71
2023/10/25 00:46:31;;;;;;;11.17;3.60;;;;;9.30;99576.00;;;;10529994;28;20216;-71
2023/10/25 00:51:35;;;;;;;6.47;3.90;;;;;9.30;99579.00;;;;10539614;28;20188;-71
2023/10/25 00:56:38;;;;;;;10.97;4.00;;;;;9.30;99571.00;;;;10544246;28;20300;-72
2023/10/25 01:01:41;;;;;;;8.20;3.70;;;;;9.20;99569.00;;;;10532697;28;20212;-74
2023/10/25 01:06:43;;;;;;;10.13;3.60;;;;;9.20;99568.00;;;;10526580;28;20207;-73
2023/10/25 01:11:45;;;;;;;5.50;3.07;;;;;9.20;99555.00;;;;10547667;28;20216;-73
2023/10/25 01:16:47;;;;;;;10.90;3.50;;;;;9.10;99557.00;;;;10541174;28;20613;-73
2023/10/25 01:21:49;;;;;;;6.43;2.90;;;;;9.10;99545.00;;;;10545610;28;20208;-73
2023/10/25 01:26:51;;;;;;;10.27;3.07;;;;;9.10;99537.00;;;;10553838;28;20196;-73
2023/10/25 01:31:53;;;;;;;5.77;2.83;;;;;9.10;99535.00;;;;10551333;28;20209;-73
2023/10/25 01:36:55;;;;;;;7.23;2.60;;;;;9.10;99520.00;;;;10521008;28;20208;-73
2023/10/25 01:41:57;;;;;;;11.07;3.13;;;;;9.20;99515.00;;;;10541818;27;20205;-73
2023/10/25 01:46:59;;;;;;;10.37;2.70;;;;;9.20;99516.00;;;;10539210;28;20204;-73
2023/10/25 01:52:02;;;;;;;8.17;3.27;;;;;9.30;99499.00;;;;10560263;27;20756;-73
2023/10/25 01:57:04;;;;;;;8.40;3.07;;;;;9.30;99491.00;;;;10555392;27;20200;-73
2023/10/25 02:02:07;;;;;;;8.20;3.07;;;;;9.30;99480.00;;;;10542191;27;20224;-73
2023/10/25 02:07:09;;;;;;;10.77;2.97;;;;;9.30;99472.00;;;;10541034;27;20223;-73
2023/10/25 02:12:11;;;;;;;7.37;2.93;;;;;9.30;99459.00;;;;10543282;27;20707;-73
2023/10/25 02:17:13;;;;;;;4.40;2.73;;;;;9.40;99439.00;;;;10534295;28;20204;-74
2023/10/25 02:22:15;;;;;;;8.87;2.60;;;;;9.40;99435.00;;;;10527668;28;20193;-74
2023/10/25 02:27:17;;;;;;;6.50;2.47;;;;;9.40;99430.00;;;;10548683;27;20204;-74
2023/10/25 02:32:19;;;;;;;5.73;2.43;;;;;9.40;99420.00;;;;10541808;27;20301;-73
2023/10/25 02:37:21;;;;;;;7.07;2.37;;;;;9.40;99422.00;;;;10542614;27;20780;-75
2023/10/25 02:42:23;;;;;;;4.67;2.40;;;;;9.40;99422.00;;;;10531808;28;20274;-75
2023/10/25 02:47:25;;;;;;;8.30;2.73;;;;;9.30;99409.00;;;;10551577;27;20261;-74
2023/10/25 02:52:27;;;;;;;6.40;2.40;;;;;9.30;99405.00;;;;10545259;27;20235;-74
2023/10/25 02:57:28;;;;;;;5.87;2.57;;;;;9.40;99411.00;;;;10567301;27;20277;-73
2023/10/25 03:02:31;;;;;;;4.10;2.63;;;;;9.40;99393.00;;;;10537262;27;20227;-75
2023/10/25 03:07:33;;;;;;;6.17;2.43;;;;;9.40;99391.00;;;;10528194;27;20678;-75
2023/10/25 03:12:34;;;;;;;9.13;2.50;;;;;9.50;99386.00;;;;10552077;27;20247;-74
2023/10/25 03:17:38;;;;;;;5.27;1.97;;;;;9.50;99374.00;;;;10523013;28;20275;-74
2023/10/25 03:22:40;;;;;;;3.57;2.10;;;;;9.40;99360.00;;;;10551161;27;20732;-73
2023/10/25 03:27:42;;;;;;;5.87;2.53;;;;;9.40;99355.00;;;;10558086;27;20207;-73
2023/10/25 03:32:44;;;;;;;8.10;2.70;;;;;9.40;99349.00;;;;10553802;27;20212;-73
2023/10/25 03:37:46;;;;;;;8.07;2.17;;;;;9.40;99350.00;;;;10558564;27;20208;-73
2023/10/25 03:42:48;;;;;;;11.53;2.53;;;;;9.40;99344.00;;;;10547892;27;20957;-73
2023/10/25 03:47:50;;;;;;;9.10;2.43;;;;;9.40;99345.00;;;;10532008;27;20532;-74
2023/10/25 03:52:52;;;;;;;6.07;2.20;;;;;9.30;99340.00;;;;10542231;27;20279;-73
2023/10/25 03:57:54;;;;;;;5.63;2.10;;;;;9.30;99322.00;;;;10554393;27;20196;-73
2023/10/25 04:02:56;;;;;;;5.67;2.07;;;;;9.30;99317.00;;;;10555800;27;20254;-73
2023/10/25 04:07:58;;;;;;;6.47;1.90;;;;;9.30;99310.00;;;;10535883;27;20201;-73
2023/10/25 04:12:59;;;;;;;7.37;1.80;;;;;9.30;99308.00;;;;10552285;27;20242;-73
2023/10/25 04:18:02;;;;;;;7.93;1.87;;;;;9.30;99288.00;;;;10544572;28;20200;-73
2023/10/25 04:23:04;;;;;;;7.23;2.10;;;;;9.30;99282.00;;;;10544546;27;20266;-73
2023/10/25 04:28:06;;;;;;;4.00;2.00;;;;;9.30;99283.00;;;;10552020;27;20299;-73
2023/10/25 04:33:08;;;;;;;6.57;2.10;;;;;9.30;99266.00;;;;10543844;28;20216;-72
2023/10/25 04:38:10;;;;;;;4.13;2.27;;;;;9.30;99258.00;;;;10557262;28;20197;-71
2023/10/25 04:43:12;;;;;;;4.33;2.00;;;;;9.30;99254.00;;;;10535595;28;20861;-71
2023/10/25 04:48:14;;;;;;;3.87;2.27;;;;;9.30;99247.00;;;;10515867;28;20251;-71
2023/10/25 04:53:16;;;;;;;7.93;2.40;;;;;9.30;99245.00;;;;10546470;28;20242;-71
2023/10/25 04:58:19;;;;;;;9.13;2.00;;;;;9.40;99232.00;;;;10541817;28;20287;-72
2023/10/25 05:03:21;;;;;;;3.30;1.90;;;;;9.40;99206.00;;;;10528179;28;20200;-72
2023/10/25 05:08:23;;;;;;;4.77;2.07;;;;;9.50;99227.00;;;;10527622;28;20794;-71
2023/10/25 05:13:25;;;;;;;6.07;1.70;;;;;9.50;99222.00;;;;10526788;28;20340;-71
2023/10/25 05:18:28;;;;;;;5.37;1.93;;;;;9.60;99218.00;;;;10551386;27;20227;-72
2023/10/25 05:23:31;;;;;;;2.17;1.47;;;;;9.60;99216.00;;;;10552804;27;20231;-72
2023/10/25 05:28:34;;;;;;;6.83;1.80;;;;;9.60;99219.00;;;;10522702;27;20721;-72
2023/10/25 05:33:35;;;;;;;9.50;1.70;;;;;9.60;99208.00;;;;10549226;28;20204;-73
2023/10/25 05:38:38;;;;;;;5.67;2.00;;;;;9.50;99205.00;;;;10535629;27;20796;-73
2023/10/25 05:43:42;;;;;;;3.13;1.40;;;;;9.50;99197.00;;;;10544253;27;20281;-73
2023/10/25 05:48:44;;;;;;;6.10;1.80;;;;;9.50;99191.00;;;;10549526;27;20204;-73
2023/10/25 05:53:47;;;;;;;4.33;1.93;;;;;9.50;99181.00;;;;10529694;27;20228;-73
2023/10/25 05:58:49;;;;;;;5.83;1.90;;;;;9.50;99164.00;;;;10557094;27;20238;-72
2023/10/25 06:03:53;;;;;;;7.90;1.87;;;;;9.40;99158.00;;;;10532484;27;20279;-73
2023/10/25 06:08:55;;;;;;;5.70;2.03;;;;;9.40;99151.00;;;;10545393;28;20201;-73
2023/10/25 06:13:57;;;;;;;6.10;1.57;;;;;9.40;99144.00;;;;10552624;28;20689;-73
2023/10/25 06:18:59;;;;;;;3.83;1.60;;;;;9.40;99136.00;;;;10545394;27;20247;-73
2023/10/25 06:24:02;;;;;;;2.30;1.60;;;;;9.40;99113.00;;;;10517994;27;20254;-73
2023/10/25 06:29:03;;;;;;;6.60;1.83;;;;;9.40;99098.00;;;;10537236;27;20844;-72
2023/10/25 06:34:05;;;;;;;3.77;1.70;;;;;9.30;99079.00;;;;10559237;27;20379;-73
2023/10/25 06:39:10;;;;;;;5.67;2.00;;;;;9.30;99067.00;;;;10517212;27;20256;-73
2023/10/25 06:44:12;;;;;;;6.77;2.30;;;;;9.30;99070.00;;;;10560268;27;20291;-73
2023/10/25 06:49:14;;;;;;;3.70;1.70;;;;;9.30;99049.00;;;;10548463;28;20196;-73
2023/10/25 06:54:16;;;;;;;4.57;2.40;;;;;9.30;99039.00;;;;10520221;27;20211;-75
2023/10/25 06:59:18;;;;;;;6.27;2.90;;;;;9.30;99020.00;;;;10559681;27;20212;-74
2023/10/25 07:04:22;;;;;;;7.60;2.90;;;;;9.30;99016.00;;;;10547438;27;20824;-75
2023/10/25 07:09:24;;;;;;;5.10;3.07;;;;;9.30;99000.00;;;;10558596;27;20206;-75
2023/10/25 07:14:26;;;;;;;4.27;2.67;;;;;9.30;98996.00;;;;10536105;27;20228;-75
2023/10/25 07:19:28;;;;;;;6.63;2.80;;;;;9.30;98985.00;;;;10529712;27;20209;-74
2023/10/25 07:24:30;;;;;;;6.67;2.43;;;;;9.30;98963.00;;;;10539335;27;20219;-74
2023/10/25 07:29:32;;;;;;;5.33;3.10;;;;;9.30;98982.00;;;;10540376;27;20246;-74
2023/10/25 07:34:33;;;;;;;4.87;2.80;;;;;9.40;98973.00;;;;10550667;27;20298;-73
2023/10/25 07:39:35;;;;;;;5.87;2.43;;;;;9.50;98968.00;;;;10545996;27;20215;-74
2023/10/25 07:44:37;;;;;;;6.40;2.87;;;;;9.50;98949.00;;;;10538736;27;20223;-73
2023/10/25 07:49:45;;;;;;;4.27;2.73;;;;;9.50;98933.00;;;;10539559;27;20214;-73
2023/10/25 07:54:47;;;;;;;6.47;2.43;;;;;9.60;98935.00;;;;10533954;27;20308;-73
2023/10/25 07:59:49;;;;;;;4.30;2.40;;;;;9.60;98925.00;;;;10526370;27;20291;-73
2023/10/25 08:04:51;;;;;;;6.20;2.40;;;;;9.70;98910.00;;;;10530487;27;20285;-73
2023/10/25 08:09:52;;;;;;;7.93;2.83;;;;;9.70;98890.00;;;;10531574;27;20314;-72
2023/10/25 08:14:54;;;;;;;8.47;2.87;;;;;9.70;98886.00;;;;10547253;27;20317;-73
2023/10/25 08:19:56;;;;;;;5.93;2.80;;;;;9.60;98872.00;;;;10520679;27;20283;-73
2023/10/25 08:24:58;;;;;;;7.10;2.53;;;;;9.70;98873.00;;;;10546094;27;20956;-73
2023/10/25 08:30:02;;;;;;;3.70;2.53;;;;;9.70;98857.00;;;;10543568;27;20211;-72
2023/10/25 08:35:04;;;;;;;6.37;2.83;;;;;9.60;98852.00;;;;10529673;28;20212;-72
2023/10/25 08:40:09;;;;;;;5.33;3.20;;;;;9.60;98830.00;;;;10532573;28;20200;-72
2023/10/25 08:45:14;;;;;;;5.53;2.90;;;;;9.70;98828.00;;;;10530906;28;20245;-72
2023/10/25 08:50:19;;;;;;;4.20;3.23;;;;;9.70;98821.00;;;;10530509;28;20220;-73
2023/10/25 08:55:21;;;;;;;7.00;3.57;;;;;9.70;98820.00;;;;10546187;28;20213;-72
2023/10/25 09:00:28;;;;;;;4.60;3.83;;;;;9.80;98811.00;;;;10538084;28;20574;-72
2023/10/25 09:05:48;;;;;;;5.53;3.57;;;;;9.80;98794.00;;;;10544284;28;20214;-72
2023/10/25 09:11:05;;;;;;;5.40;3.97;;;;;9.70;98800.00;;;;10520207;27;20200;-70
2023/10/25 09:16:09;;;;;;;8.00;4.23;;;;;9.70;98787.00;;;;10543086;28;20335;-73
2023/10/25 09:21:11;;;;;;;5.17;4.33;;;;;9.70;98794.00;;;;10536737;28;20550;-73
2023/10/25 09:26:16;;;;;;;5.80;4.67;;;;;9.90;98776.00;;;;10552900;28;20964;-73
2023/10/25 09:31:25;;;;;;;6.37;3.80;;;;;9.90;98779.00;;;;10515006;28;20208;-74
2023/10/25 09:36:28;;;;;;;5.60;4.97;;;;;9.90;98761.00;;;;10517841;28;20220;-74
2023/10/25 09:41:36;;;;;;;6.70;4.77;;;;;10.00;98755.00;;;;10549992;28;20203;-74
2023/10/25 09:46:40;;;;;;;7.77;5.27;;;;;10.10;98747.00;;;;10546829;28;20193;-74
2023/10/25 09:51:47;;;;;;;10.07;5.90;;;;;10.30;98745.00;;;;10542260;28;20207;-74
2023/10/25 09:56:51;;;;;;;6.60;5.87;;;;;10.60;98730.00;;;;10547475;28;20228;-75
2023/10/25 10:01:55;;;;;;;6.63;5.77;;;;;10.50;98719.00;;;;10557055;27;20280;-75
2023/10/25 10:07:34;;;;;;;7.93;6.10;;;;;10.50;98712.00;;;;10554406;27;20201;-75
2023/10/25 10:12:37;;;;;;;7.47;6.17;;;;;10.60;98707.00;;;;10546548;27;20856;-75
2023/10/25 10:17:43;;;;;;;8.53;6.67;;;;;10.70;98696.00;;;;10556241;27;20314;-75
2023/10/25 10:23:07;;;;;;;9.60;7.13;;;;;10.80;98688.00;;;;10557642;27;20201;-73
2023/10/25 10:28:09;;;;;;;7.40;6.60;;;;;10.90;98671.00;;;;10545982;27;20652;-73
2023/10/25 10:33:12;;;;;;;10.43;6.87;;;;;11.10;98680.00;;;;10539964;27;20231;-72
2023/10/25 10:38:15;;;;;;;9.30;6.63;;;;;11.00;98666.00;;;;10532258;27;20207;-72
2023/10/25 10:43:20;;;;;;;11.60;7.17;;;;;10.90;98662.00;;;;10515207;27;20204;-72
2023/10/25 10:48:32;;;;;;;8.57;7.43;;;;;10.90;98651.00;;;;10517621;27;20208;-72
2023/10/25 10:53:34;;;;;;;8.17;7.27;;;;;11.00;98649.00;;;;10538592;27;20228;-72
2023/10/25 10:58:36;;;;;;;8.97;7.30;;;;;11.10;98638.00;;;;10549088;27;20200;-72
2023/10/25 11:03:38;;;;;;;12.27;7.37;;;;;11.10;98632.00;;;;10521898;27;20470;-73
2023/10/25 11:08:42;;;;;;;9.20;7.27;;;;;11.10;98626.00;;;;10524981;28;20204;-72
2023/10/25 11:13:44;;;;;;;8.53;7.43;;;;;11.10;98627.00;;;;10532113;27;20204;-72
2023/10/25 11:18:46;;;;;;;8.33;7.53;;;;;11.10;98614.00;;;;10536676;27;20737;-72
2023/10/25 11:23:48;;;;;;;11.70;7.70;;;;;11.10;98617.00;;;;10509618;27;20282;-72
2023/10/25 11:28:50;;;;;;;7.53;6.73;;;;;11.20;98607.00;;;;10560116;27;20203;-73
2023/10/25 11:33:52;;;;;;;8.13;7.23;;;;;11.30;98601.00;;;;10550277;27;20228;-72
2023/10/25 11:39:03;;;;;;;7.50;6.80;;;;;11.40;98598.00;;;;10535100;27;20513;-73
2023/10/25 11:44:06;;;;;;;8.20;6.80;;;;;11.40;98594.00;;;;10520564;27;20230;-75
2023/10/25 11:49:09;;;;;;;7.80;6.87;;;;;11.50;98586.00;;;;10530381;27;20231;-75
2023/10/25 11:54:11;;;;;;;7.80;6.90;;;;;11.60;98581.00;;;;10507314;27;20828;-74
2023/10/25 11:59:19;;;;;;;9.40;7.03;;;;;11.60;98580.00;;;;10553620;27;20550;-74
2023/10/25 12:04:21;;;;;;;11.07;7.30;;;;;11.70;98574.00;;;;10556371;27;20212;-73
2023/10/25 12:09:23;;;;;;;7.00;6.30;;;;;11.90;98572.00;;;;10540385;27;20261;-76
2023/10/25 12:14:25;;;;;;;9.07;6.73;;;;;12.00;98563.00;;;;10563562;27;20266;-75
2023/10/25 12:19:37;;;;;;;8.80;6.73;;;;;12.20;98558.00;;;;10556373;27;20287;-74
2023/10/25 12:24:41;;;;;;;7.40;6.22;;;;;12.30;98552.00;;;;10559505;27;20199;-73
2023/10/25 12:29:49;;;;;;;8.43;6.37;;;;;12.30;98551.00;;;;10548861;27;20204;-75
2023/10/25 12:34:51;;;;;;;8.75;6.15;;;;;12.30;98552.00;;;;10516131;27;20215;-73
2023/10/25 12:39:54;;;;;;;5.87;5.27;;;;;12.40;98554.00;;;;10534341;27;20820;-75
2023/10/25 12:44:59;;;;;;;6.80;5.63;;;;;12.40;98551.00;;;;10539570;27;20204;-74
2023/10/25 12:50:04;;;;;;;10.05;6.07;;;;;12.80;98552.00;;;;10543411;28;20663;-74
2023/10/25 12:55:06;;;;;;;6.95;6.18;;;;;12.90;98560.00;;;;10525186;28;20779;-73
2023/10/25 13:00:09;;;;;;;9.45;6.53;;;;;13.00;98559.00;;;;10531443;28;20212;-73
2023/10/25 13:05:12;;;;;;;7.22;6.53;;;;;13.20;98553.00;;;;10510589;28;20215;-73
2023/10/25 13:10:14;;;;;;;7.40;6.22;;;;;13.10;98553.00;;;;10541321;28;20193;-73
2023/10/25 13:15:17;;;;;;;7.63;6.18;;;;;12.90;98551.00;;;;10521823;28;20208;-73
2023/10/25 13:20:19;;;;;;;8.13;6.05;;;;;13.10;98552.00;;;;10534318;28;20207;-74
2023/10/25 13:25:21;;;;;;;11.25;7.13;;;;;13.00;98551.00;;;;10514420;28;20223;-73
2023/10/25 13:30:23;;;;;;;11.07;8.45;;;;;12.80;98561.00;;;;10517891;28;20200;-73
2023/10/25 13:35:27;;;;;;;12.80;9.90;;;;;12.70;98553.00;;;;10536288;27;20794;-73
2023/10/25 13:40:29;;;;;;;14.55;9.35;;;;;12.60;98575.00;;;;10541909;27;20216;-72
2023/10/25 13:45:31;;;;;;;12.73;9.85;;;;;12.50;98577.00;;;;10550015;27;20289;-73
2023/10/25 13:50:33;;;;;;;10.20;8.87;;;;;12.40;98580.00;;;;10544641;27;20204;-73
2023/10/25 13:55:38;;;;;;;13.43;8.47;;;;;12.40;98582.00;;;;10540816;27;20227;-73
2023/10/25 14:00:41;;;;;;;8.60;7.72;;;;;12.30;98586.00;;;;10522523;27;20261;-73
2023/10/25 14:05:42;;;;;;;8.90;8.10;;;;;12.30;98587.00;;;;10542522;27;20227;-72
2023/10/25 14:10:49;;;;;;;10.00;7.87;;;;;12.20;98590.00;;;;10542166;27;20223;-72
2023/10/25 14:15:50;;;;;;;8.90;8.10;;;;;12.30;98595.00;;;;10541624;27;20782;-73
2023/10/25 14:20:52;;;;;;;7.60;6.60;;;;;12.20;98596.00;;;;10522482;27;20288;-72
2023/10/25 14:25:54;;;;;;;8.07;7.27;;;;;12.10;98597.00;;;;10543615;27;20720;-72
2023/10/25 14:30:56;;;;;;;7.70;6.67;;;;;12.10;98604.00;;;;10528846;27;20801;-73
2023/10/25 14:35:58;;;;;;;6.97;6.33;;;;;12.20;98614.00;;;;10506797;27;20248;-72
2023/10/25 14:41:01;;;;;;;8.37;7.47;;;;;12.10;98620.00;;;;10543186;27;20714;-72
2023/10/25 14:46:03;;;;;;;12.07;7.93;;;;;12.20;98617.00;;;;10537026;27;20283;-73
2023/10/25 14:51:26;;;;;;;8.93;6.97;;;;;12.20;98625.00;;;;10542869;27;20196;-73
2023/10/25 14:56:27;;;;;;;7.00;6.30;;;;;12.00;98619.00;;;;10539541;28;20216;-73
2023/10/25 15:01:29;;;;;;;7.20;6.50;;;;;11.80;98621.00;;;;10515787;27;20735;-72
2023/10/25 15:06:31;;;;;;;8.43;7.30;;;;;11.70;98628.00;;;;10543138;27;20185;-72
2023/10/25 15:11:33;;;;;;;8.47;7.67;;;;;11.50;98627.00;;;;10552001;27;20189;-73
2023/10/25 15:16:35;;;;;;;15.77;13.10;;;;;11.60;98633.00;;;;10530313;27;20216;-73
2023/10/25 15:21:37;;;;;;;13.23;10.80;;;;;11.70;98645.00;;;;10527247;28;20294;-73
2023/10/25 15:26:39;;;;;;;11.43;10.27;;;;;11.70;98631.00;;;;10517241;28;20295;-75
2023/10/25 15:31:41;;;;;;;13.23;11.83;;;;;11.50;98640.00;;;;10535162;27;20275;-73
2023/10/25 15:36:45;;;;;;;13.20;11.50;;;;;11.50;98640.00;;;;10522853;27;20204;-73
2023/10/25 15:41:47;;;;;;;14.43;12.93;;;;;11.40;98648.00;;;;10504158;28;20298;-73
2023/10/25 15:46:49;;;;;;;16.93;14.83;;;;;11.40;98647.00;;;;10486337;27;20949;-73
2023/10/25 15:51:51;;;;;;;15.47;13.53;;;;;11.30;98653.00;;;;10540166;27;20901;-73
2023/10/25 15:56:53;;;;;;;19.07;15.70;;;;;11.30;98662.00;;;;10536240;27;20221;-73
2023/10/25 16:01:55;;;;;;;19.27;16.93;;;;;11.20;98669.00;;;;10542760;27;20177;-74
2023/10/25 16:07:11;;;;;;;19.77;14.83;;;;;11.20;98680.00;;;;10534304;28;20247;-73
2023/10/25 16:12:12;;;;;;;15.13;13.33;;;;;11.10;98683.00;;;;10531440;28;20196;-73
2023/10/25 16:17:14;;;;;;;15.93;13.00;;;;;11.00;98679.00;;;;10541880;28;20283;-73
2023/10/25 16:22:17;;;;;;;17.30;13.03;;;;;11.00;98688.00;;;;10511242;27;20268;-71
2023/10/25 16:27:20;;;;;;;11.30;8.77;;;;;11.00;98682.00;;;;10540654;28;20526;-69
2023/10/25 16:32:22;;;;;;;13.37;11.53;;;;;10.90;98698.00;;;;10527879;27;20306;-70
2023/10/25 16:37:25;;;;;;;15.00;11.70;;;;;10.90;98712.00;;;;10513368;28;20212;-70
2023/10/25 16:42:27;;;;;;;12.63;11.07;;;;;10.80;98712.00;;;;10506049;28;20249;-71
2023/10/25 16:47:29;;;;;;;12.93;10.70;;;;;10.80;98725.00;;;;10531883;27;20546;-71
2023/10/25 16:52:32;;;;;;;11.90;8.97;;;;;10.80;98728.00;;;;10513959;28;20339;-70
2023/10/25 16:57:33;;;;;;;11.43;9.43;;;;;10.70;98739.00;;;;10512394;28;20220;-69
2023/10/25 17:02:35;;;;;;;10.37;9.27;;;;;10.70;98746.00;;;;10523147;28;20696;-71
2023/10/25 17:07:37;;;;;;;10.50;9.40;;;;;10.70;98762.00;;;;10508539;28;20196;-69
2023/10/25 17:12:39;;;;;;;11.53;10.33;;;;;10.60;98766.00;;;;10542416;28;20806;-69
2023/10/25 17:17:41;;;;;;;14.20;11.10;;;;;10.60;98782.00;;;;10546400;28;20200;-70
2023/10/25 17:22:43;;;;;;;11.77;10.57;;;;;10.50;98787.00;;;;10541943;28;20250;-71
2023/10/25 17:27:49;;;;;;;15.10;12.33;;;;;10.50;98796.00;;;;10547569;28;20195;-71
2023/10/25 17:32:51;;;;;;;14.20;12.70;;;;;10.40;98801.00;;;;10549980;27;20191;-72
2023/10/25 17:37:54;;;;;;;18.23;13.73;;;;;10.40;98814.00;;;;10550387;28;20188;-70
2023/10/25 17:42:58;;;;;;;17.10;14.33;;;;;10.40;98813.00;;;;10546781;28;20180;-70
2023/10/25 17:48:01;;;;;;;15.33;12.97;;;;;10.40;98819.00;;;;10538222;28;20875;-70
2023/10/25 17:53:03;;;;;;;18.00;14.50;;;;;10.40;98816.00;;;;10549166;28;20200;-71
2023/10/25 17:58:10;;;;;;;21.27;16.23;;;;;10.40;98821.00;;;;10539853;28;20224;-70
2023/10/25 18:03:12;;;;;;;19.57;17.43;;;;;10.40;98826.00;;;;10548292;27;20216;-70
2023/10/25 18:08:21;;;;;;;20.60;16.70;;;;;10.40;98843.00;;;;10542360;27;20702;-70
2023/10/25 18:13:24;;;;;;;24.50;18.00;;;;;10.40;98854.00;;;;10539284;27;20243;-71
2023/10/25 18:18:27;;;;;;;24.60;17.67;;;;;10.40;98865.00;;;;10512399;27;20213;-70
2023/10/25 18:23:30;;;;;;;20.67;17.80;;;;;10.40;98864.00;;;;10540236;27;20204;-70
2023/10/25 18:28:32;;;;;;;25.83;19.70;;;;;10.40;98868.00;;;;10565968;27;20206;-70
2023/10/25 18:33:34;;;;;;;24.53;19.63;;;;;10.40;98877.00;;;;10564766;27;20180;-70
2023/10/25 18:38:38;;;;;;;25.83;20.47;;;;;10.40;98882.00;;;;10532749;28;20995;-70
2023/10/25 18:43:39;;;;;;;25.77;20.93;;;;;10.40;98888.00;;;;10543177;28;20191;-72
2023/10/25 18:48:41;;;;;;;27.23;21.30;;;;;10.40;98894.00;;;;10530681;28;20208;-73
2023/10/25 18:53:44;;;;;;;31.00;23.10;;;;;10.40;98886.00;;;;10504781;27;20884;-73
2023/10/25 18:58:46;;;;;;;31.90;24.23;;;;;10.40;98903.00;;;;10527815;28;20220;-73
2023/10/25 19:03:48;;;;;;;32.33;21.90;;;;;10.40;98910.00;;;;10550056;27;20199;-72
2023/10/25 19:08:53;;;;;;;29.10;21.23;;;;;10.40;98909.00;;;;10547542;28;20921;-72
2023/10/25 19:13:55;;;;;;;34.63;25.17;;;;;10.40;98916.00;;;;10546875;27;20197;-73
2023/10/25 19:18:57;;;;;;;30.90;24.20;;;;;10.40;98917.00;;;;10531890;27;20201;-73
2023/10/25 19:23:59;;;;;;;34.17;26.17;;;;;10.40;98926.00;;;;10545539;27;20212;-73
2023/10/25 19:29:04;;;;;;;36.87;27.27;;;;;10.40;98948.00;;;;10547283;28;20197;-72
2023/10/25 19:34:06;;;;;;;37.97;29.07;;;;;10.50;98967.00;;;;10536155;28;20199;-73
2023/10/25 19:39:09;;;;;;;37.70;28.03;;;;;10.50;98960.00;;;;10528969;28;21623;-73
2023/10/25 19:44:11;;;;;;;35.63;27.00;;;;;10.50;98952.00;;;;10535949;28;20192;-73
2023/10/25 19:49:14;;;;;;;35.33;26.83;;;;;10.50;98965.00;;;;10546602;27;20196;-73
2023/10/25 19:54:16;;;;;;;43.73;28.40;;;;;10.50;98970.00;;;;10522770;28;20188;-72
2023/10/25 19:59:23;;;;;;;38.77;28.53;;;;;10.40;98982.00;;;;10549046;28;20293;-72
2023/10/25 20:04:25;;;;;;;36.40;28.50;;;;;10.40;98994.00;;;;10548082;28;20212;-72
2023/10/25 20:09:27;;;;;;;37.83;28.83;;;;;10.40;99011.00;;;;10527421;28;20227;-72
2023/10/25 20:14:29;;;;;;;38.47;29.27;;;;;10.40;99024.00;;;;10542910;28;20270;-72
2023/10/25 20:19:31;;;;;;;40.23;29.33;;;;;10.40;99031.00;;;;10555455;27;20219;-72
2023/10/25 20:24:33;;;;;;;37.73;28.63;;;;;10.40;99038.00;;;;10547308;27;20940;-72
2023/10/25 20:29:39;;;;;;;38.37;29.07;;;;;10.40;99047.00;;;;10529558;28;20284;-72
2023/10/25 20:34:41;;;;;;;42.20;30.47;;;;;10.40;99038.00;;;;10531103;28;20205;-72
2023/10/25 20:39:44;;;;;;;40.93;27.63;;;;;10.30;99041.00;;;;10532844;28;20184;-73
2023/10/25 20:44:46;;;;;;;38.23;25.87;;;;;10.30;99051.00;;;;10542251;28;20270;-73
2023/10/25 20:49:48;;;;;;;38.33;30.13;;;;;10.30;99064.00;;;;10532063;28;20185;-72
2023/10/25 20:54:50;;;;;;;38.47;29.73;;;;;10.20;99063.00;;;;10529417;28;20222;-73
2023/10/25 20:59:53;;;;;;;40.03;30.23;;;;;10.20;99066.00;;;;10537946;28;20243;-72
2023/10/25 21:04:55;;;;;;;34.97;28.83;;;;;10.10;99061.00;;;;10532661;28;20195;-74
2023/10/25 21:09:57;;;;;;;36.07;27.13;;;;;10.00;99058.00;;;;10532409;28;20192;-74
2023/10/25 21:14:59;;;;;;;31.97;26.97;;;;;9.80;99067.00;;;;10547957;28;20742;-74
2023/10/25 21:20:01;;;;;;;31.50;25.90;;;;;9.70;99071.00;;;;10549651;28;20202;-73
2023/10/25 21:25:03;;;;;;;31.80;25.07;;;;;9.60;99082.00;;;;10542299;28;20243;-74
2023/10/25 21:30:06;;;;;;;33.60;24.53;;;;;9.40;99080.00;;;;10551268;28;20189;-73
2023/10/25 21:35:08;;;;;;;35.30;26.03;;;;;9.40;99084.00;;;;10554983;28;20295;-74
2023/10/25 21:40:10;;;;;;;37.57;26.77;;;;;9.40;99080.00;;;;10527669;28;20199;-74
2023/10/25 21:45:12;;;;;;;35.77;25.90;;;;;9.40;99096.00;;;;10542016;28;20220;-74
2023/10/25 21:50:14;;;;;;;36.10;26.10;;;;;9.30;99090.00;;;;10547884;28;20203;-74
2023/10/25 21:55:16;;;;;;;37.60;28.60;;;;;9.20;99095.00;;;;10523313;28;20216;-73
2023/10/25 22:00:21;;;;;;;37.57;27.23;;;;;9.20;99101.00;;;;10522058;28;20230;-74
2023/10/25 22:05:23;;;;;;;44.70;29.03;;;;;9.10;99096.00;;;;10524486;28;20739;-74
2023/10/25 22:10:25;;;;;;;37.47;28.10;;;;;9.00;99108.00;;;;10539167;28;20208;-73
2023/10/25 22:15:28;;;;;;;37.30;29.50;;;;;9.00;99109.00;;;;10541772;28;20284;-72
2023/10/25 22:20:30;;;;;;;41.27;30.23;;;;;9.00;99106.00;;;;10527918;27;20716;-72
2023/10/25 22:25:31;;;;;;;37.80;28.77;;;;;8.90;99099.00;;;;10555741;28;20198;-72
2023/10/25 22:30:33;;;;;;;40.47;29.73;;;;;8.90;99113.00;;;;10558374;27;20196;-72
2023/10/25 22:35:37;;;;;;;42.30;30.33;;;;;8.80;99125.00;;;;10553885;27;20212;-72
2023/10/25 22:40:39;;;;;;;42.53;31.00;;;;;8.80;99129.00;;;;10549878;27;20189;-72
2023/10/25 22:45:41;;;;;;;40.47;30.27;;;;;8.80;99139.00;;;;10551694;28;20199;-72
2023/10/25 22:50:50;;;;;;;48.33;33.77;;;;;8.80;99143.00;;;;10546192;27;20224;-72
2023/10/25 22:55:53;;;;;;;43.80;31.63;;;;;8.80;99147.00;;;;10555910;27;20841;-71
2023/10/25 23:00:54;;;;;;;40.97;30.50;;;;;8.70;99147.00;;;;10532749;27;20288;-72
2023/10/25 23:05:59;;;;;;;43.23;31.27;;;;;8.60;99154.00;;;;10539957;27;20204;-72
2023/10/25 23:11:01;;;;;;;40.33;29.40;;;;;8.50;99158.00;;;;10547785;27;20729;-72
2023/10/25 23:16:03;;;;;;;38.83;29.57;;;;;8.50;99153.00;;;;10546167;27;20212;-72
2023/10/25 23:21:05;;;;;;;41.50;28.80;;;;;8.40;99159.00;;;;10521067;27;20616;-72
2023/10/25 23:26:08;;;;;;;36.43;29.07;;;;;8.30;99170.00;;;;10535003;28;20220;-72
2023/10/25 23:31:10;;;;;;;37.73;29.07;;;;;8.30;99167.00;;;;10557875;27;20287;-72
2023/10/25 23:36:12;;;;;;;38.97;29.43;;;;;8.20;99177.00;;;;10537296;27;20750;-72
2023/10/25 23:41:14;;;;;;;37.07;28.93;;;;;8.20;99183.00;;;;10552910;28;20287;-72
2023/10/25 23:46:16;;;;;;;39.80;30.57;;;;;8.10;99189.00;;;;10554014;27;20277;-72
2023/10/25 23:51:18;;;;;;;43.43;30.23;;;;;8.00;99184.00;;;;10529565;28;20192;-72
2023/10/25 23:56:19;;;;;;;44.47;30.43;;;;;8.00;99183.00;;;;10524760;28;20333;-72
